Time;durP1;ratioP1;P1;durP2;ratioP2;P2;SDS_P1;SDS_P2;PMS_P1;PMS_P2;Temp;Humidity;BMP_temperature;BMP_pressure;BME280_temperature;BME280_humidity;BME280_pressure;Samples;Min_cycle;Max_cycle;Signal;HPM_P1;HPM_P2
2021/08/08 00:01:53;;;;;;;;;;;14.30;99.90;;;;;;5063322;28;19936;-56
2021/08/08 00:04:42;;;;;;;;;;;14.30;99.90;;;;;;5056546;28;19967;-59
2021/08/08 00:07:31;;;;;;;;;;;14.20;99.90;;;;;;5060635;28;20033;-57
2021/08/08 00:10:19;;;;;;;;;;;14.20;99.90;;;;;;5054312;28;20277;-58
2021/08/08 00:13:08;;;;;;;;;;;14.20;99.90;;;;;;5067346;28;19924;-56
2021/08/08 00:15:57;;;;;;;;;;;14.20;99.90;;;;;;5052645;28;19929;-56
2021/08/08 00:18:47;;;;;;;;;;;14.20;99.90;;;;;;5063494;28;20370;-56
2021/08/08 00:21:35;;;;;;;;;;;14.20;99.90;;;;;;5066784;28;19935;-57
2021/08/08 00:24:27;;;;;;;;;;;14.20;99.90;;;;;;5058103;28;19929;-57
2021/08/08 00:27:17;;;;;;;;;;;14.20;99.90;;;;;;5065857;28;19924;-56
2021/08/08 00:30:07;;;;;;;;;;;14.20;99.90;;;;;;5041444;28;19925;-56
2021/08/08 00:32:57;;;;;;;;;;;14.20;99.90;;;;;;5049377;28;19929;-58
2021/08/08 00:36:05;;;;;;;;;;;14.20;99.90;;;;;;5026203;28;20292;-56
2021/08/08 00:38:56;;;;;;;;;;;14.20;99.90;;;;;;5039295;28;19925;-56
2021/08/08 00:41:47;;;;;;;;;;;14.30;99.90;;;;;;5038343;28;19925;-56
2021/08/08 00:44:37;;;;;;;;;;;14.30;99.90;;;;;;5068678;28;19928;-56
2021/08/08 00:47:25;;;;;;;;;;;14.30;99.90;;;;;;5046803;28;19931;-57
2021/08/08 00:50:40;;;;;;;;;;;14.30;99.90;;;;;;5037405;28;19926;-59
2021/08/08 00:53:33;;;;;;;;;;;14.20;99.90;;;;;;5041012;28;19925;-56
2021/08/08 00:56:23;;;;;;;;;;;14.10;99.90;;;;;;5043227;28;19925;-56
2021/08/08 00:59:15;;;;;;;;;;;14.10;99.90;;;;;;5046684;28;19932;-57
2021/08/08 01:02:28;;;;;;;;;;;14.10;99.90;;;;;;5045385;28;19925;-58
2021/08/08 01:05:21;;;;;;;;;;;14.10;99.90;;;;;;5057810;28;19925;-56
2021/08/08 01:08:14;;;;;;;;;;;14.10;99.90;;;;;;5047214;28;20381;-57
2021/08/08 01:11:04;;;;;;;;;;;14.10;99.90;;;;;;5063510;28;19929;-58
2021/08/08 01:13:54;;;;;;;;;;;14.00;99.90;;;;;;5054844;28;20376;-56
2021/08/08 01:16:43;;;;;;;;;;;14.00;99.90;;;;;;5032729;28;19925;-56
2021/08/08 01:19:35;;;;;;;;;;;14.00;99.90;;;;;;5053892;28;20003;-56
2021/08/08 01:22:24;;;;;;;;;;;13.90;99.90;;;;;;5055223;28;19970;-56
2021/08/08 01:25:14;;;;;;;;;;;13.90;99.90;;;;;;5055987;28;19925;-56
2021/08/08 01:28:04;;;;;;;;;;;14.00;99.90;;;;;;5051445;28;20377;-57
2021/08/08 01:30:59;;;;;;;;;;;14.00;99.90;;;;;;5028593;28;19928;-56
2021/08/08 01:33:51;;;;;;;;;;;14.00;99.90;;;;;;5065228;28;19955;-55
2021/08/08 01:36:39;;;;;;;;;;;14.00;99.90;;;;;;5053058;28;20325;-56
2021/08/08 01:39:31;;;;;;;;;;;14.00;99.90;;;;;;5067622;28;19936;-56
2021/08/08 01:42:22;;;;;;;;;;;14.10;99.90;;;;;;5069061;28;20074;-56
2021/08/08 01:45:15;;;;;;;;;;;14.00;99.90;;;;;;5066267;28;20009;-56
2021/08/08 01:48:05;;;;;;;;;;;14.00;99.90;;;;;;5063761;28;20004;-55
2021/08/08 01:50:54;;;;;;;;;;;14.10;99.90;;;;;;5061907;28;19925;-56
2021/08/08 01:53:44;;;;;;;;;;;14.00;99.90;;;;;;5069222;28;20067;-56
2021/08/08 01:56:33;;;;;;;;;;;14.00;99.90;;;;;;5056316;28;19939;-56
2021/08/08 01:59:24;;;;;;;;;;;14.00;99.90;;;;;;5054902;28;19924;-56
2021/08/08 02:02:15;;;;;;;;;;;13.90;99.90;;;;;;5069447;28;20396;-56
2021/08/08 02:05:12;;;;;;;;;;;14.00;99.90;;;;;;5074464;28;19931;-56
2021/08/08 02:08:01;;;;;;;;;;;13.90;99.90;;;;;;5103643;28;19931;-57
2021/08/08 02:10:57;;;;;;;;;;;13.90;99.90;;;;;;5100318;28;20381;-56
2021/08/08 02:13:56;;;;;;;;;;;13.80;99.90;;;;;;5109468;27;19939;-56
2021/08/08 02:16:49;;;;;;;;;;;13.70;99.90;;;;;;5070467;28;20272;-56
2021/08/08 02:19:42;;;;;;;;;;;13.70;99.90;;;;;;5105625;28;19931;-56
2021/08/08 02:22:32;;;;;;;;;;;13.80;99.90;;;;;;5086630;28;19924;-57
2021/08/08 02:25:21;;;;;;;;;;;13.80;99.90;;;;;;5085602;28;19931;-56
2021/08/08 02:28:10;;;;;;;;;;;13.80;99.90;;;;;;5068168;28;19947;-58
2021/08/08 02:31:27;;;;;;;;;;;13.80;99.90;;;;;;5100865;27;19924;-55
2021/08/08 02:34:18;;;;;;;;;;;13.80;99.90;;;;;;5088059;28;19924;-57
2021/08/08 02:37:10;;;;;;;;;;;13.90;99.90;;;;;;5101141;28;19931;-56
2021/08/08 02:40:02;;;;;;;;;;;13.90;99.90;;;;;;5098354;28;19924;-57
2021/08/08 02:42:52;;;;;;;;;;;14.00;99.90;;;;;;5080615;28;19924;-55
2021/08/08 02:45:41;;;;;;;;;;;14.10;99.90;;;;;;5080961;28;19924;-58
2021/08/08 02:48:35;;;;;;;;;;;14.20;99.90;;;;;;5100680;28;20003;-56
2021/08/08 02:51:26;;;;;;;;;;;14.20;99.90;;;;;;5076320;28;19931;-56
2021/08/08 02:54:15;;;;;;;;;;;14.20;99.90;;;;;;5089664;28;19932;-56
2021/08/08 02:57:06;;;;;;;;;;;14.20;99.90;;;;;;5091139;28;19931;-57
2021/08/08 02:59:55;;;;;;;;;;;14.30;99.90;;;;;;5089235;28;19984;-56
2021/08/08 03:02:43;;;;;;;;;;;14.40;99.90;;;;;;5062247;28;19925;-56
2021/08/08 03:05:33;;;;;;;;;;;14.30;99.90;;;;;;5065285;28;19952;-56
2021/08/08 03:08:23;;;;;;;;;;;14.30;99.90;;;;;;5063316;28;19925;-56
2021/08/08 03:11:13;;;;;;;;;;;14.20;99.90;;;;;;5052735;28;19925;-55
2021/08/08 03:14:02;;;;;;;;;;;14.30;99.90;;;;;;5058593;28;20015;-57
2021/08/08 03:16:51;;;;;;;;;;;14.30;99.90;;;;;;5067341;28;19925;-56
2021/08/08 03:19:44;;;;;;;;;;;14.30;99.90;;;;;;5070182;28;19960;-55
2021/08/08 03:22:35;;;;;;;;;;;14.40;99.90;;;;;;5055809;28;19936;-56
2021/08/08 03:25:25;;;;;;;;;;;14.40;99.90;;;;;;5060902;28;20016;-59
2021/08/08 03:28:14;;;;;;;;;;;14.40;99.90;;;;;;5080695;28;19924;-58
2021/08/08 03:31:28;;;;;;;;;;;14.40;99.90;;;;;;5068177;28;19940;-56
2021/08/08 03:34:17;;;;;;;;;;;14.40;99.90;;;;;;5071032;28;19924;-59
2021/08/08 03:37:05;;;;;;;;;;;14.20;99.90;;;;;;5071544;28;19925;-56
2021/08/08 03:39:58;;;;;;;;;;;14.30;99.90;;;;;;5058367;28;19924;-58
2021/08/08 03:42:50;;;;;;;;;;;14.40;99.90;;;;;;5060034;28;20015;-59
2021/08/08 03:45:40;;;;;;;;;;;14.20;99.90;;;;;;5061834;28;20435;-56
2021/08/08 03:48:29;;;;;;;;;;;14.20;99.90;;;;;;5048601;28;19925;-56
2021/08/08 03:51:18;;;;;;;;;;;14.10;99.90;;;;;;5060411;28;19925;-55
2021/08/08 03:54:07;;;;;;;;;;;14.10;99.90;;;;;;5048504;28;19939;-56
2021/08/08 03:56:56;;;;;;;;;;;14.10;99.90;;;;;;5056240;28;19924;-55
2021/08/08 03:59:46;;;;;;;;;;;14.00;99.90;;;;;;5054247;28;19924;-56
2021/08/08 04:02:35;;;;;;;;;;;13.90;99.90;;;;;;5071184;28;20012;-56
2021/08/08 04:05:24;;;;;;;;;;;13.90;99.90;;;;;;5062725;28;19925;-56
2021/08/08 04:08:14;;;;;;;;;;;13.90;99.90;;;;;;5059682;28;19924;-55
2021/08/08 04:11:02;;;;;;;;;;;13.90;99.90;;;;;;5062057;28;19931;-56
2021/08/08 04:13:52;;;;;;;;;;;14.00;99.90;;;;;;5040300;28;19932;-56
2021/08/08 04:16:42;;;;;;;;;;;14.00;99.90;;;;;;5054183;28;19937;-57
2021/08/08 04:19:31;;;;;;;;;;;14.00;99.90;;;;;;5046115;28;20380;-57
2021/08/08 04:22:19;;;;;;;;;;;14.00;99.90;;;;;;5052405;28;20077;-56
2021/08/08 04:25:08;;;;;;;;;;;14.00;99.90;;;;;;5066941;28;19939;-56
2021/08/08 04:27:56;;;;;;;;;;;14.10;99.90;;;;;;5065366;28;20466;-56
2021/08/08 04:30:45;;;;;;;;;;;14.10;99.90;;;;;;5042631;28;19925;-56
2021/08/08 04:33:37;;;;;;;;;;;14.00;99.90;;;;;;5052686;28;20016;-56
2021/08/08 04:36:26;;;;;;;;;;;14.10;99.90;;;;;;5065701;28;20382;-55
2021/08/08 04:39:18;;;;;;;;;;;14.10;99.90;;;;;;5045574;28;19925;-55
2021/08/08 04:42:07;;;;;;;;;;;14.30;99.90;;;;;;5047643;28;20020;-56
2021/08/08 04:44:57;;;;;;;;;;;14.40;99.90;;;;;;5048528;28;19935;-56
2021/08/08 04:47:46;;;;;;;;;;;14.50;99.90;;;;;;5059674;28;19979;-56
2021/08/08 04:50:37;;;;;;;;;;;14.60;99.90;;;;;;5067795;28;19970;-55
2021/08/08 04:53:27;;;;;;;;;;;14.60;99.90;;;;;;5041919;28;20278;-56
2021/08/08 04:56:15;;;;;;;;;;;14.50;99.90;;;;;;5037120;28;20361;-56
2021/08/08 04:59:03;;;;;;;;;;;14.60;99.90;;;;;;5050916;28;19932;-56
2021/08/08 05:01:52;;;;;;;;;;;14.40;99.90;;;;;;5036857;28;19985;-57
2021/08/08 05:04:41;;;;;;;;;;;14.30;99.90;;;;;;5045266;28;19929;-56
2021/08/08 05:07:32;;;;;;;;;;;14.50;99.90;;;;;;5052022;28;19925;-58
2021/08/08 05:10:24;;;;;;;;;;;14.60;99.90;;;;;;5046485;28;20287;-56
2021/08/08 05:13:14;;;;;;;;;;;14.80;99.90;;;;;;5075920;28;19929;-57
2021/08/08 05:16:03;;;;;;;;;;;15.00;99.90;;;;;;5054572;28;19932;-56
2021/08/08 05:18:52;;;;;;;;;;;15.00;99.90;;;;;;5054705;28;20372;-56
2021/08/08 05:21:41;;;;;;;;;;;14.90;99.90;;;;;;5073346;28;19928;-59
2021/08/08 05:24:33;;;;;;;;;;;14.90;99.90;;;;;;5042853;28;19928;-58
2021/08/08 05:27:21;;;;;;;;;;;14.80;99.90;;;;;;5063621;28;19932;-56
2021/08/08 05:30:11;;;;;;;;;;;15.00;99.90;;;;;;5046047;28;19929;-56
2021/08/08 05:33:01;;;;;;;;;;;15.20;99.90;;;;;;5057774;28;19932;-56
2021/08/08 05:35:52;;;;;;;;;;;15.90;99.90;;;;;;5070797;28;20025;-56
2021/08/08 05:38:41;;;;;;;;;;;16.00;99.90;;;;;;5054750;28;19939;-56
2021/08/08 05:41:31;;;;;;;;;;;16.20;99.90;;;;;;5068139;28;19929;-56
2021/08/08 05:44:21;;;;;;;;;;;16.20;99.90;;;;;;5051615;28;19925;-56
2021/08/08 05:47:10;;;;;;;;;;;16.10;99.90;;;;;;5067439;28;19924;-56
2021/08/08 05:49:59;;;;;;;;;;;16.20;99.90;;;;;;5085244;28;19946;-55
2021/08/08 05:52:50;;;;;;;;;;;16.50;99.90;;;;;;5070154;28;19946;-56
2021/08/08 05:55:44;;;;;;;;;;;16.50;99.90;;;;;;5086236;28;19924;-56
2021/08/08 05:58:35;;;;;;;;;;;16.50;99.90;;;;;;5081134;28;19950;-56
2021/08/08 06:01:23;;;;;;;;;;;16.60;99.90;;;;;;5063353;28;20023;-56
2021/08/08 06:04:12;;;;;;;;;;;16.60;99.90;;;;;;5097542;28;19935;-56
2021/08/08 06:07:01;;;;;;;;;;;16.50;99.90;;;;;;5077681;28;19924;-56
2021/08/08 06:09:50;;;;;;;;;;;16.60;99.90;;;;;;5072458;28;19974;-56
2021/08/08 06:12:38;;;;;;;;;;;16.80;99.90;;;;;;5069527;28;19924;-55
2021/08/08 06:15:30;;;;;;;;;;;17.10;99.90;;;;;;5069493;28;20003;-56
2021/08/08 06:18:19;;;;;;;;;;;17.40;99.90;;;;;;5104729;28;19924;-57
2021/08/08 06:21:10;;;;;;;;;;;17.60;99.90;;;;;;5107464;27;20023;-56
2021/08/08 06:24:05;;;;;;;;;;;17.90;99.90;;;;;;5088353;28;19987;-57
2021/08/08 06:26:56;;;;;;;;;;;18.20;99.90;;;;;;5068575;28;19931;-56
2021/08/08 06:29:44;;;;;;;;;;;18.70;99.90;;;;;;5095136;28;20284;-56
2021/08/08 06:32:35;;;;;;;;;;;19.00;99.90;;;;;;5095327;28;19928;-57
2021/08/08 06:35:23;;;;;;;;;;;20.20;99.90;;;;;;5122896;27;19929;-56
2021/08/08 06:38:12;;;;;;;;;;;21.50;99.90;;;;;;5120638;28;19924;-56
2021/08/08 06:41:25;;;;;;;;;;;22.30;99.90;;;;;;5100245;28;19930;-57
2021/08/08 06:44:15;;;;;;;;;;;23.40;99.90;;;;;;5121384;28;19943;-56
2021/08/08 06:47:04;;;;;;;;;;;24.10;99.90;;;;;;5101950;28;19947;-56
2021/08/08 06:49:58;;;;;;;;;;;25.90;97.40;;;;;;5133762;27;19924;-61
2021/08/08 06:52:47;;;;;;;;;;;26.70;96.20;;;;;;5105108;28;19928;-58
2021/08/08 06:55:36;;;;;;;;;;;26.00;95.50;;;;;;5129779;27;19908;-57
2021/08/08 06:58:24;;;;;;;;;;;25.60;96.10;;;;;;5101913;28;19992;-56
2021/08/08 07:01:16;;;;;;;;;;;26.60;96.20;;;;;;5112181;28;19935;-56
2021/08/08 07:04:05;;;;;;;;;;;26.90;93.70;;;;;;5110702;28;19946;-57
2021/08/08 07:06:55;;;;;;;;;;;28.00;92.90;;;;;;5125603;27;19924;-56
2021/08/08 07:09:44;;;;;;;;;;;25.50;95.60;;;;;;5119520;28;19932;-56
2021/08/08 07:12:38;;;;;;;;;;;26.20;95.30;;;;;;5101924;28;19935;-57
2021/08/08 07:15:28;;;;;;;;;;;23.90;97.80;;;;;;5099196;28;19931;-56
2021/08/08 07:18:17;;;;;;;;;;;21.70;99.90;;;;;;5116702;28;19924;-56
2021/08/08 07:21:05;;;;;;;;;;;25.30;97.50;;;;;;5099950;28;19982;-57
2021/08/08 07:23:57;;;;;;;;;;;27.10;93.60;;;;;;5094437;28;19915;-56
2021/08/08 07:26:46;;;;;;;;;;;24.20;96.90;;;;;;5072043;28;19947;-56
2021/08/08 07:29:35;;;;;;;;;;;26.20;94.90;;;;;;5105490;27;20368;-56
2021/08/08 07:32:26;;;;;;;;;;;25.50;94.70;;;;;;5089779;28;20393;-56
2021/08/08 07:35:15;;;;;;;;;;;25.80;94.80;;;;;;5078683;28;20268;-56
2021/08/08 07:38:09;;;;;;;;;;;27.00;92.60;;;;;;5102380;27;20280;-56
2021/08/08 07:40:59;;;;;;;;;;;28.60;89.20;;;;;;5081428;28;20020;-56
2021/08/08 07:44:00;;;;;;;;;;;28.60;88.30;;;;;;5071518;28;19931;-56
2021/08/08 07:46:56;;;;;;;;;;;29.90;83.20;;;;;;5084865;28;20368;-56
2021/08/08 07:49:45;;;;;;;;;;;30.60;78.40;;;;;;5089367;27;19957;-56
2021/08/08 07:52:36;;;;;;;;;;;28.10;84.10;;;;;;5096278;28;20380;-57
2021/08/08 07:55:25;;;;;;;;;;;29.20;81.40;;;;;;5072331;28;19924;-56
2021/08/08 07:58:14;;;;;;;;;;;27.10;84.20;;;;;;5071156;28;19924;-57
2021/08/08 08:01:03;;;;;;;;;;;25.90;90.70;;;;;;5068163;28;19932;-56
2021/08/08 08:03:52;;;;;;;;;;;25.70;88.80;;;;;;5075024;28;20344;-57
2021/08/08 08:06:41;;;;;;;;;;;25.60;90.80;;;;;;5087274;28;19924;-57
2021/08/08 08:09:31;;;;;;;;;;;25.10;91.10;;;;;;5071135;28;19924;-56
2021/08/08 08:12:20;;;;;;;;;;;28.70;84.80;;;;;;5070940;28;19924;-57
2021/08/08 08:15:11;;;;;;;;;;;29.30;79.50;;;;;;5068707;28;19947;-56
2021/08/08 08:18:00;;;;;;;;;;;27.20;83.60;;;;;;5071597;28;20409;-56
2021/08/08 08:20:48;;;;;;;;;;;28.80;80.70;;;;;;5085186;28;19924;-56
2021/08/08 08:23:37;;;;;;;;;;;27.60;80.20;;;;;;5072165;28;19924;-56
2021/08/08 08:26:25;;;;;;;;;;;25.50;86.90;;;;;;5070959;28;19928;-56
2021/08/08 08:32:29;;;;;;;;;;;22.90;92.60;;;;;;5075884;28;20364;-56
2021/08/08 08:35:18;;;;;;;;;;;23.60;92.90;;;;;;5079067;28;20003;-58
2021/08/08 08:38:07;;;;;;;;;;;27.00;84.50;;;;;;5076801;28;19924;-56
2021/08/08 08:40:56;;;;;;;;;;;30.00;73.80;;;;;;5070363;28;19985;-56
2021/08/08 08:43:46;;;;;;;;;;;30.00;67.80;;;;;;5092613;28;19931;-56
2021/08/08 08:46:37;;;;;;;;;;;30.30;69.70;;;;;;5072093;28;20299;-56
2021/08/08 08:49:29;;;;;;;;;;;28.00;74.10;;;;;;5081576;28;19928;-56
2021/08/08 08:52:20;;;;;;;;;;;27.60;76.00;;;;;;5102994;27;19924;-56
2021/08/08 08:55:09;;;;;;;;;;;29.40;69.80;;;;;;5102552;28;20300;-56
2021/08/08 08:57:59;;;;;;;;;;;28.80;73.00;;;;;;5079843;28;19925;-57
2021/08/08 09:00:47;;;;;;;;;;;30.10;71.10;;;;;;5071346;28;19932;-56
2021/08/08 09:03:36;;;;;;;;;;;32.20;62.80;;;;;;5052475;28;19924;-56
2021/08/08 09:06:26;;;;;;;;;;;32.00;60.70;;;;;;5052739;28;20003;-56
2021/08/08 09:09:15;;;;;;;;;;;30.20;60.90;;;;;;5057113;28;19948;-55
2021/08/08 09:12:05;;;;;;;;;;;31.90;59.90;;;;;;5068287;28;19940;-56
2021/08/08 09:14:56;;;;;;;;;;;33.70;55.10;;;;;;5046686;28;19925;-56
2021/08/08 09:17:46;;;;;;;;;;;33.40;54.90;;;;;;5054127;28;20414;-56
2021/08/08 09:20:35;;;;;;;;;;;33.70;54.30;;;;;;5039380;28;20019;-56
2021/08/08 09:23:34;;;;;;;;;;;31.80;56.40;;;;;;5064440;28;20291;-57
2021/08/08 09:26:28;;;;;;;;;;;33.10;54.60;;;;;;5051421;28;20296;-57
2021/08/08 09:32:30;;;;;;;;;;;29.40;57.10;;;;;;5056803;28;19924;-57
2021/08/08 09:35:21;;;;;;;;;;;26.70;68.90;;;;;;5045145;28;19925;-59
2021/08/08 09:38:10;;;;;;;;;;;24.60;74.50;;;;;;5072954;28;20030;-56
2021/08/08 09:41:01;;;;;;;;;;;23.60;81.30;;;;;;5062722;28;19925;-56
2021/08/08 09:44:15;;;;;;;;;;;23.80;83.40;;;;;;5061582;28;19928;-56
2021/08/08 09:47:04;;;;;;;;;;;23.60;85.80;;;;;;5052147;28;20415;-57
2021/08/08 09:49:59;;;;;;;;;;;22.80;88.80;;;;;;5059579;28;19925;-56
2021/08/08 09:52:52;;;;;;;;;;;22.70;90.20;;;;;;5060488;28;20061;-57
2021/08/08 09:55:41;;;;;;;;;;;22.90;90.70;;;;;;5058326;28;19948;-56
2021/08/08 09:58:39;;;;;;;;;;;22.50;90.00;;;;;;5068420;28;19932;-58
2021/08/08 10:01:27;;;;;;;;;;;22.00;92.10;;;;;;5062169;28;19928;-60
2021/08/08 10:04:16;;;;;;;;;;;22.10;92.10;;;;;;5068177;28;19929;-56
2021/08/08 10:07:08;;;;;;;;;;;21.80;93.10;;;;;;5070237;28;19932;-57
2021/08/08 10:09:57;;;;;;;;;;;21.60;93.40;;;;;;5075850;28;19932;-56
2021/08/08 10:13:17;;;;;;;;;;;21.70;93.60;;;;;;5072902;28;19924;-58
2021/08/08 10:16:10;;;;;;;;;;;22.00;93.20;;;;;;5067971;28;20361;-56
2021/08/08 10:19:01;;;;;;;;;;;22.20;92.80;;;;;;5076414;28;19925;-57
2021/08/08 10:21:49;;;;;;;;;;;22.40;91.60;;;;;;5077480;28;19931;-56
2021/08/08 10:24:38;;;;;;;;;;;22.70;91.20;;;;;;5073808;28;20376;-56
2021/08/08 10:27:27;;;;;;;;;;;22.70;91.70;;;;;;5062892;28;19924;-56
2021/08/08 10:30:16;;;;;;;;;;;22.90;91.40;;;;;;5067746;28;19928;-56
2021/08/08 10:33:07;;;;;;;;;;;22.70;92.00;;;;;;5067397;28;19957;-57
2021/08/08 10:35:56;;;;;;;;;;;22.50;92.10;;;;;;5081806;28;19925;-58
2021/08/08 10:38:44;;;;;;;;;;;22.20;92.70;;;;;;5073191;28;20311;-56
2021/08/08 10:41:33;;;;;;;;;;;22.10;93.00;;;;;;5070432;28;19997;-57
2021/08/08 10:44:23;;;;;;;;;;;22.20;93.40;;;;;;5082120;28;19931;-56
2021/08/08 10:47:12;;;;;;;;;;;21.90;93.80;;;;;;5069713;28;19932;-56
2021/08/08 10:50:09;;;;;;;;;;;22.00;94.40;;;;;;5080767;28;19925;-56
2021/08/08 10:52:58;;;;;;;;;;;22.00;93.20;;;;;;5068260;28;19936;-56
2021/08/08 10:55:46;;;;;;;;;;;22.80;92.70;;;;;;5072423;28;20376;-56
2021/08/08 10:58:35;;;;;;;;;;;23.00;92.30;;;;;;5073569;28;19928;-56
2021/08/08 11:01:24;;;;;;;;;;;22.70;93.00;;;;;;5060122;28;20148;-57
2021/08/08 11:04:14;;;;;;;;;;;22.80;92.60;;;;;;5062984;28;19979;-56
2021/08/08 11:07:05;;;;;;;;;;;23.20;89.90;;;;;;5057641;28;19924;-56
2021/08/08 11:09:55;;;;;;;;;;;23.60;90.00;;;;;;5059957;28;20274;-56
2021/08/08 11:12:44;;;;;;;;;;;23.20;89.60;;;;;;5051607;28;19930;-58
2021/08/08 11:15:33;;;;;;;;;;;23.00;90.30;;;;;;5059558;28;19924;-60
2021/08/08 11:18:29;;;;;;;;;;;23.20;90.30;;;;;;5057897;28;20350;-59
2021/08/08 11:21:17;;;;;;;;;;;23.60;90.30;;;;;;5068320;28;19924;-57
2021/08/08 11:24:10;;;;;;;;;;;23.40;90.40;;;;;;5059664;28;19928;-56
2021/08/08 11:26:58;;;;;;;;;;;23.00;90.70;;;;;;5063902;28;19924;-57
2021/08/08 11:29:52;;;;;;;;;;;23.10;91.30;;;;;;5070881;28;19932;-57
2021/08/08 11:32:41;;;;;;;;;;;23.50;91.50;;;;;;5055266;28;19924;-56
2021/08/08 11:35:30;;;;;;;;;;;23.70;91.40;;;;;;5065051;28;19978;-56
2021/08/08 11:38:20;;;;;;;;;;;23.50;91.20;;;;;;5064980;28;20029;-57
2021/08/08 11:41:17;;;;;;;;;;;23.10;91.50;;;;;;5054955;28;20389;-56
2021/08/08 11:44:08;;;;;;;;;;;22.60;91.40;;;;;;5076258;28;19932;-58
2021/08/08 11:46:57;;;;;;;;;;;22.70;91.60;;;;;;5063695;28;20019;-57
2021/08/08 11:49:47;;;;;;;;;;;23.00;91.40;;;;;;5049824;28;20499;-56
2021/08/08 11:52:36;;;;;;;;;;;23.50;90.60;;;;;;5069672;28;19951;-56
2021/08/08 11:55:25;;;;;;;;;;;23.60;90.00;;;;;;5067278;28;19935;-59
2021/08/08 11:58:15;;;;;;;;;;;23.40;90.20;;;;;;5077708;28;19959;-58
2021/08/08 12:01:09;;;;;;;;;;;23.40;90.50;;;;;;5066687;28;19989;-59
2021/08/08 12:04:06;;;;;;;;;;;22.80;91.20;;;;;;5095117;28;19924;-57
2021/08/08 12:06:55;;;;;;;;;;;22.70;89.70;;;;;;5093310;28;19973;-57
2021/08/08 12:09:46;;;;;;;;;;;22.60;90.10;;;;;;5085306;28;19931;-56
2021/08/08 12:12:41;;;;;;;;;;;22.50;90.10;;;;;;5080287;28;19958;-57
2021/08/08 12:15:36;;;;;;;;;;;22.60;89.40;;;;;;5070984;28;20397;-57
2021/08/08 12:18:28;;;;;;;;;;;22.30;88.80;;;;;;5078449;28;19928;-57
2021/08/08 12:21:17;;;;;;;;;;;22.40;90.00;;;;;;5087258;28;19925;-56
2021/08/08 12:24:06;;;;;;;;;;;22.30;90.00;;;;;;5085445;28;19928;-56
2021/08/08 12:26:55;;;;;;;;;;;22.50;90.40;;;;;;5087696;28;20289;-56
2021/08/08 12:29:46;;;;;;;;;;;22.60;90.40;;;;;;5096955;28;20375;-56
2021/08/08 12:32:36;;;;;;;;;;;22.70;89.00;;;;;;5067585;28;19968;-57
2021/08/08 12:35:25;;;;;;;;;;;22.70;88.80;;;;;;5076917;28;20372;-57
2021/08/08 12:38:14;;;;;;;;;;;22.70;87.60;;;;;;5084293;28;19924;-57
2021/08/08 12:41:03;;;;;;;;;;;23.00;88.70;;;;;;5075314;28;19924;-56
2021/08/08 12:43:55;;;;;;;;;;;22.90;89.20;;;;;;5080909;28;19931;-56
2021/08/08 12:46:44;;;;;;;;;;;23.10;89.20;;;;;;5065206;28;19928;-58
2021/08/08 12:49:59;;;;;;;;;;;23.30;88.80;;;;;;5064817;28;19928;-57
2021/08/08 12:52:49;;;;;;;;;;;23.10;87.90;;;;;;5070530;28;19925;-57
2021/08/08 12:55:39;;;;;;;;;;;23.40;89.00;;;;;;5079599;28;19924;-56
2021/08/08 12:58:27;;;;;;;;;;;23.30;88.80;;;;;;5070947;28;19935;-56
2021/08/08 13:01:20;;;;;;;;;;;23.20;88.80;;;;;;5067339;28;19928;-56
2021/08/08 13:04:09;;;;;;;;;;;23.30;89.40;;;;;;5077801;28;19932;-56
2021/08/08 13:06:59;;;;;;;;;;;23.00;88.70;;;;;;5085580;28;20372;-56
2021/08/08 13:09:47;;;;;;;;;;;22.80;89.40;;;;;;5062614;28;19924;-56
2021/08/08 13:12:40;;;;;;;;;;;22.40;89.50;;;;;;5065883;28;19928;-59
2021/08/08 13:15:29;;;;;;;;;;;22.40;90.60;;;;;;5076029;28;19931;-61
2021/08/08 13:18:17;;;;;;;;;;;22.30;91.20;;;;;;5072131;28;19924;-56
2021/08/08 13:21:06;;;;;;;;;;;22.30;91.30;;;;;;5087849;28;19932;-57
2021/08/08 13:23:56;;;;;;;;;;;22.20;91.10;;;;;;5081804;28;19931;-58
2021/08/08 13:26:44;;;;;;;;;;;22.20;91.80;;;;;;5079179;28;19932;-56
2021/08/08 13:29:33;;;;;;;;;;;22.10;92.30;;;;;;5086961;28;19924;-56
2021/08/08 13:32:22;;;;;;;;;;;21.80;92.50;;;;;;5076139;28;19932;-57
2021/08/08 13:35:12;;;;;;;;;;;21.60;92.40;;;;;;5081091;28;19924;-56
2021/08/08 13:38:00;;;;;;;;;;;21.60;92.30;;;;;;5081494;28;19924;-56
2021/08/08 13:44:08;;;;;;;;;;;22.00;92.40;;;;;;5088132;28;19931;-57
2021/08/08 13:46:57;;;;;;;;;;;21.90;92.30;;;;;;5086349;28;20006;-56
2021/08/08 13:49:46;;;;;;;;;;;21.70;92.40;;;;;;5076063;28;19925;-56
2021/08/08 13:52:34;;;;;;;;;;;21.70;92.50;;;;;;5084335;28;19925;-56
2021/08/08 13:55:24;;;;;;;;;;;21.60;92.60;;;;;;5090315;28;19939;-58
2021/08/08 13:58:14;;;;;;;;;;;21.60;92.70;;;;;;5082709;28;19924;-56
2021/08/08 14:01:03;;;;;;;;;;;21.80;92.40;;;;;;5065061;28;19932;-57
2021/08/08 14:03:53;;;;;;;;;;;22.40;91.50;;;;;;5059802;28;20297;-59
2021/08/08 14:06:41;;;;;;;;;;;22.60;90.00;;;;;;5049871;28;19925;-56
2021/08/08 14:09:43;;;;;;;;;;;22.50;88.80;;;;;;5053907;28;19925;-56
2021/08/08 14:15:46;;;;;;;;;;;22.00;89.40;;;;;;5044698;28;19925;-56
2021/08/08 14:18:35;;;;;;;;;;;21.80;89.90;;;;;;5053663;28;20014;-57
2021/08/08 14:21:23;;;;;;;;;;;21.60;90.30;;;;;;5054822;28;19924;-57
2021/08/08 14:24:12;;;;;;;;;;;21.50;90.80;;;;;;5057894;28;19925;-56
2021/08/08 14:27:01;;;;;;;;;;;21.50;91.20;;;;;;5047510;28;19925;-57
2021/08/08 14:29:50;;;;;;;;;;;21.30;91.50;;;;;;5051384;28;19994;-57
2021/08/08 14:32:39;;;;;;;;;;;21.20;92.20;;;;;;5045369;28;19929;-56
2021/08/08 14:35:28;;;;;;;;;;;21.20;92.40;;;;;;5048501;28;19940;-57
2021/08/08 14:38:17;;;;;;;;;;;21.00;93.10;;;;;;5054482;28;19947;-57
2021/08/08 14:41:09;;;;;;;;;;;20.90;93.60;;;;;;5048260;28;19929;-57
2021/08/08 14:43:58;;;;;;;;;;;20.90;95.50;;;;;;5056646;28;19932;-56
2021/08/08 14:47:12;;;;;;;;;;;20.60;98.00;;;;;;5044967;28;20343;-56
2021/08/08 14:50:02;;;;;;;;;;;20.20;99.90;;;;;;5066351;28;19925;-55
2021/08/08 14:52:51;;;;;;;;;;;19.80;99.90;;;;;;5039116;28;19931;-59
2021/08/08 14:55:41;;;;;;;;;;;19.90;99.90;;;;;;5055493;28;19977;-55
2021/08/08 14:58:31;;;;;;;;;;;20.30;99.90;;;;;;5055641;28;19931;-55
2021/08/08 15:01:19;;;;;;;;;;;20.20;99.90;;;;;;5063226;28;20250;-56
2021/08/08 15:04:08;;;;;;;;;;;19.90;99.90;;;;;;5081579;28;19924;-56
2021/08/08 15:06:58;;;;;;;;;;;19.70;99.90;;;;;;5082567;28;19983;-55
2021/08/08 15:09:48;;;;;;;;;;;19.70;99.90;;;;;;5090001;28;20143;-57
2021/08/08 15:13:02;;;;;;;;;;;20.20;99.90;;;;;;5089364;28;20268;-56
2021/08/08 15:15:51;;;;;;;;;;;20.10;99.90;;;;;;5073101;28;19924;-56
2021/08/08 15:18:39;;;;;;;;;;;20.50;99.90;;;;;;5090560;28;19924;-56
2021/08/08 15:21:28;;;;;;;;;;;20.10;99.90;;;;;;5083941;28;19928;-56
2021/08/08 15:24:33;;;;;;;;;;;20.70;99.90;;;;;;5091445;28;19924;-55
2021/08/08 15:27:21;;;;;;;;;;;20.90;99.90;;;;;;5085566;28;19931;-60
2021/08/08 15:30:10;;;;;;;;;;;20.70;99.90;;;;;;5078624;28;19928;-56
2021/08/08 15:32:59;;;;;;;;;;;20.10;99.90;;;;;;5086652;28;19946;-56
2021/08/08 15:35:49;;;;;;;;;;;20.10;99.90;;;;;;5088053;28;19924;-58
2021/08/08 15:38:37;;;;;;;;;;;20.20;99.90;;;;;;5087348;28;20357;-59
2021/08/08 15:41:30;;;;;;;;;;;20.50;99.90;;;;;;5089821;28;19924;-56
2021/08/08 15:44:18;;;;;;;;;;;20.90;99.90;;;;;;5081057;28;19935;-57
2021/08/08 15:47:07;;;;;;;;;;;21.00;99.90;;;;;;5084132;28;20336;-56
2021/08/08 15:49:56;;;;;;;;;;;20.70;99.90;;;;;;5076529;28;19924;-55
2021/08/08 15:52:45;;;;;;;;;;;20.80;99.90;;;;;;5085915;28;19956;-57
2021/08/08 15:55:36;;;;;;;;;;;20.50;99.90;;;;;;5091167;28;20006;-55
2021/08/08 15:58:26;;;;;;;;;;;20.40;99.90;;;;;;5082869;28;20330;-56
2021/08/08 16:01:14;;;;;;;;;;;20.70;99.90;;;;;;5069509;28;19931;-56
2021/08/08 16:04:03;;;;;;;;;;;20.50;99.90;;;;;;5080136;28;19924;-57
2021/08/08 16:06:52;;;;;;;;;;;20.00;99.90;;;;;;5082708;28;19925;-57
2021/08/08 16:09:40;;;;;;;;;;;20.00;99.90;;;;;;5077647;28;19970;-56
2021/08/08 16:15:46;;;;;;;;;;;20.10;99.90;;;;;;5059802;28;20011;-56
2021/08/08 16:18:35;;;;;;;;;;;19.90;99.90;;;;;;5077292;28;19947;-56
2021/08/08 16:21:23;;;;;;;;;;;20.00;99.90;;;;;;5085350;28;19960;-57
2021/08/08 16:24:11;;;;;;;;;;;20.40;99.90;;;;;;5091224;28;19970;-57
2021/08/08 16:27:00;;;;;;;;;;;20.50;99.90;;;;;;5078558;28;19936;-56
2021/08/08 16:29:48;;;;;;;;;;;20.60;99.90;;;;;;5094967;28;19963;-56
2021/08/08 16:32:39;;;;;;;;;;;20.50;99.90;;;;;;5101200;28;19938;-56
2021/08/08 16:35:27;;;;;;;;;;;20.60;99.90;;;;;;5102948;28;19967;-56
2021/08/08 16:38:17;;;;;;;;;;;20.60;99.90;;;;;;5088866;28;19925;-58
2021/08/08 16:41:06;;;;;;;;;;;20.70;99.90;;;;;;5102587;28;19924;-58
2021/08/08 16:43:57;;;;;;;;;;;20.70;99.90;;;;;;5092785;28;20364;-56
2021/08/08 16:46:47;;;;;;;;;;;20.60;99.50;;;;;;5095688;28;19924;-57
2021/08/08 16:50:01;;;;;;;;;;;20.50;98.90;;;;;;5088204;28;19935;-57